Time;durP1;ratioP1;P1;durP2;ratioP2;P2;SDS_P1;SDS_P2;PMS_P1;PMS_P2;Temp;Humidity;BMP_temperature;BMP_pressure;BME280_temperature;BME280_humidity;BME280_pressure;Samples;Min_cycle;Max_cycle;Signal;HPM_P1;HPM_P2
2022/10/05 00:01:23;;;;;;;6.20;3.00;;;;;;;12.18;79.38;101121.52;107716;1279;74754;-78
2022/10/05 00:04:00;;;;;;;4.70;3.20;;;;;;;12.19;79.47;101121.59;107733;1279;72676;-79
2022/10/05 00:06:29;;;;;;;6.30;3.00;;;;;;;12.22;79.58;101131.41;107700;1279;72992;-78
2022/10/05 00:08:55;;;;;;;6.00;2.70;;;;;;;12.23;79.45;101122.15;107743;1279;61997;-78
2022/10/05 00:11:24;;;;;;;6.40;2.80;;;;;;;12.27;79.21;101123.27;107580;1279;61184;-78
2022/10/05 00:13:51;;;;;;;6.10;3.10;;;;;;;12.29;78.88;101127.59;107689;1279;76037;-79
2022/10/05 00:16:19;;;;;;;4.80;2.60;;;;;;;12.30;79.03;101129.96;107551;1280;71096;-78
2022/10/05 00:18:49;;;;;;;8.10;3.10;;;;;;;12.32;79.12;101123.74;107695;1279;72890;-78
2022/10/05 00:21:24;;;;;;;7.50;2.90;;;;;;;12.33;78.96;101121.77;107782;1279;62740;-78
2022/10/05 00:23:54;;;;;;;6.20;2.80;;;;;;;12.34;78.82;101117.11;107628;1279;60456;-78
2022/10/05 00:26:24;;;;;;;4.10;2.90;;;;;;;12.34;79.15;101112.09;107779;1279;76856;-78
2022/10/05 00:28:52;;;;;;;5.00;3.00;;;;;;;12.37;79.13;101105.67;107613;1279;72486;-78
2022/10/05 00:31:25;;;;;;;5.70;3.00;;;;;;;12.41;79.03;101104.22;107904;1279;73900;-78
2022/10/05 00:33:53;;;;;;;6.10;2.90;;;;;;;12.45;78.74;101104.83;107958;1278;61977;-78
2022/10/05 00:36:20;;;;;;;5.20;2.70;;;;;;;12.47;79.03;101101.75;107922;1280;59980;-78
2022/10/05 00:38:47;;;;;;;5.80;2.90;;;;;;;12.50;78.75;101103.33;108005;1278;75351;-77
2022/10/05 00:41:24;;;;;;;6.00;3.10;;;;;;;12.54;78.65;101108.80;107871;1280;71875;-78
2022/10/05 00:44:24;;;;;;;6.00;3.10;;;;;;;12.56;78.37;101112.05;107978;1279;72004;-78
2022/10/05 00:46:53;;;;;;;5.90;3.50;;;;;;;12.58;78.56;101116.65;107922;1279;62568;-77
2022/10/05 00:49:38;;;;;;;9.80;3.30;;;;;;;12.59;78.61;101118.10;107803;1280;61411;-77
2022/10/05 00:52:20;;;;;;;7.60;3.10;;;;;;;12.60;78.74;101113.37;107896;1279;73382;-77
2022/10/05 00:54:58;;;;;;;7.00;3.40;;;;;;;12.61;78.54;101110.52;107777;1278;71286;-77
2022/10/05 00:57:40;;;;;;;6.20;3.20;;;;;;;12.63;78.54;101107.69;107758;1278;74274;-78
2022/10/05 01:00:11;;;;;;;6.50;3.40;;;;;;;12.64;78.48;101104.21;107700;1279;63378;-78
2022/10/05 01:02:57;;;;;;;6.20;3.30;;;;;;;12.64;78.41;101105.81;107695;1278;60858;-77
2022/10/05 01:05:57;;;;;;;6.50;3.40;;;;;;;12.65;78.32;101111.73;107784;1278;74986;-78
2022/10/05 01:08:35;;;;;;;5.70;3.30;;;;;;;12.65;78.17;101114.02;107757;1277;70340;-78
2022/10/05 01:11:33;;;;;;;7.00;3.60;;;;;;;12.64;78.40;101114.30;107766;1279;73119;-78
2022/10/05 01:14:45;;;;;;;5.60;3.20;;;;;;;12.64;78.42;101110.91;107307;1280;62295;-78
2022/10/05 01:17:24;;;;;;;7.40;3.20;;;;;;;12.64;78.48;101110.59;107713;1268;61374;-79
2022/10/05 01:20:09;;;;;;;8.10;3.30;;;;;;;12.64;78.38;101112.38;107670;1277;75095;-78
2022/10/05 01:22:51;;;;;;;6.00;3.10;;;;;;;12.63;78.44;101109.95;107770;1277;72647;-78
2022/10/05 01:25:43;;;;;;;7.20;3.70;;;;;;;12.62;78.49;101105.64;107867;1277;72928;-78
2022/10/05 01:28:12;;;;;;;6.00;3.00;;;;;;;12.61;78.62;101101.02;107879;1269;60894;-79
2022/10/05 01:30:49;;;;;;;5.80;3.10;;;;;;;12.59;78.64;101104.55;107894;1276;61011;-79
2022/10/05 01:33:31;;;;;;;6.30;3.30;;;;;;;12.59;78.76;101098.23;107937;1276;75470;-78
2022/10/05 01:36:06;;;;;;;6.80;3.20;;;;;;;12.58;78.91;101090.20;107965;1276;71085;-78
2022/10/05 01:38:54;;;;;;;5.10;2.90;;;;;;;12.57;79.01;101085.55;107889;1276;73733;-78
2022/10/05 01:45:05;;;;;;;6.40;3.00;;;;;;;12.53;79.46;101081.02;107792;1278;59902;-78
2022/10/05 01:47:42;;;;;;;5.20;3.10;;;;;;;12.51;79.91;101077.21;107749;1278;75669;-79
2022/10/05 01:50:50;;;;;;;5.90;3.30;;;;;;;12.51;79.85;101075.94;107573;1279;72638;-78
2022/10/05 01:53:52;;;;;;;6.00;3.30;;;;;;;12.50;80.40;101076.09;107769;1277;71822;-78
2022/10/05 01:56:30;;;;;;;5.00;3.00;;;;;;;12.51;80.54;101065.48;107407;1279;64920;-78
2022/10/05 01:59:14;;;;;;;5.20;3.10;;;;;;;12.54;80.49;101066.70;107735;1278;61335;-78
2022/10/05 02:01:48;;;;;;;5.90;3.10;;;;;;;12.55;80.59;101055.71;107729;1280;78628;-78
2022/10/05 02:04:41;;;;;;;5.30;3.20;;;;;;;12.58;80.54;101053.80;107742;1279;71483;-78
2022/10/05 02:07:33;;;;;;;5.70;3.40;;;;;;;12.59;80.53;101060.08;107831;1279;72969;-78
2022/10/05 02:10:13;;;;;;;6.10;3.20;;;;;;;12.61;80.83;101056.84;107711;1280;63338;-79
2022/10/05 02:12:42;;;;;;;8.00;3.60;;;;;;;12.62;80.85;101056.16;107755;1280;61660;-78
2022/10/05 02:15:13;;;;;;;6.20;3.40;;;;;;;12.64;80.65;101050.23;107587;1278;75416;-79
2022/10/05 02:17:47;;;;;;;5.60;3.20;;;;;;;12.66;80.64;101043.63;107702;1277;70565;-78
2022/10/05 02:20:19;;;;;;;6.10;3.10;;;;;;;12.67;80.69;101037.77;107859;1276;74080;-79
2022/10/05 02:22:50;;;;;;;6.70;3.10;;;;;;;12.69;80.79;101036.20;107905;1276;62120;-78
2022/10/05 02:25:21;;;;;;;6.30;3.30;;;;;;;12.70;80.86;101034.86;107932;1276;60673;-79
2022/10/05 02:27:59;;;;;;;5.40;3.20;;;;;;;12.71;80.46;101035.25;107749;1279;75732;-78
2022/10/05 02:30:30;;;;;;;5.50;3.40;;;;;;;12.71;80.65;101036.48;107850;1278;71167;-79
2022/10/05 02:33:05;;;;;;;5.90;3.60;;;;;;;12.72;80.56;101030.86;107840;1278;71535;-79
2022/10/05 02:35:32;;;;;;;5.90;3.40;;;;;;;12.73;80.53;101028.15;107860;1278;63402;-79
2022/10/05 02:38:13;;;;;;;6.20;3.30;;;;;;;12.71;80.78;101016.95;107937;1278;60326;-79
2022/10/05 02:40:45;;;;;;;7.90;3.20;;;;;;;12.72;80.65;101025.02;107883;1277;75797;-79
2022/10/05 02:43:47;;;;;;;5.40;3.30;;;;;;;12.71;80.75;101027.60;107950;1278;71253;-79
2022/10/05 02:46:45;;;;;;;7.50;3.30;;;;;;;12.72;80.79;101025.79;108101;1279;72781;-79
2022/10/05 02:49:22;;;;;;;5.90;3.50;;;;;;;12.71;81.01;101028.49;108198;1278;63031;-79
2022/10/05 02:52:09;;;;;;;7.30;3.80;;;;;;;12.71;81.01;101032.55;108135;1277;60358;-78
2022/10/05 02:55:09;;;;;;;6.40;3.60;;;;;;;12.72;80.84;101034.04;108009;1279;74629;-77
2022/10/05 02:57:42;;;;;;;6.50;3.60;;;;;;;12.73;81.02;101030.20;108202;1277;70137;-79
2022/10/05 03:00:12;;;;;;;6.40;3.40;;;;;;;12.76;81.05;101015.66;108036;1278;73812;-79
2022/10/05 03:02:38;;;;;;;5.60;3.40;;;;;;;12.77;81.07;101010.38;107952;1278;62937;-79
2022/10/05 03:05:24;;;;;;;5.20;3.00;;;;;;;12.80;80.78;101010.79;107915;1278;61706;-78
2022/10/05 03:08:00;;;;;;;6.40;3.20;;;;;;;12.82;80.77;101011.35;107928;1278;75207;-79
2022/10/05 03:10:32;;;;;;;5.50;3.30;;;;;;;12.84;80.63;101008.51;108034;1277;71149;-79
2022/10/05 03:13:28;;;;;;;6.90;3.40;;;;;;;12.84;80.72;101004.74;107866;1277;73596;-79
2022/10/05 03:16:24;;;;;;;7.10;3.50;;;;;;;12.84;80.80;101004.58;107684;1278;63476;-79
2022/10/05 03:19:09;;;;;;;6.50;3.70;;;;;;;12.84;80.65;101002.52;107750;1278;60384;-79
2022/10/05 03:22:00;;;;;;;5.90;3.80;;;;;;;12.84;80.56;101004.95;107866;1277;73720;-79
2022/10/05 03:24:53;;;;;;;6.90;3.60;;;;;;;12.82;80.79;101009.06;108027;1278;71381;-79
2022/10/05 03:27:38;;;;;;;7.40;3.50;;;;;;;12.82;80.57;101011.91;107539;1277;792847;-79
2022/10/05 03:30:16;;;;;;;5.00;3.30;;;;;;;12.82;80.82;101007.52;107673;1269;62193;-78
2022/10/05 03:32:48;;;;;;;7.70;3.80;;;;;;;12.82;80.60;101008.27;107615;1279;60018;-79
2022/10/05 03:35:33;;;;;;;6.50;3.90;;;;;;;12.80;80.64;101005.27;107618;1279;74803;-79
2022/10/05 03:38:00;;;;;;;6.80;3.50;;;;;;;12.81;80.56;101004.95;107643;1279;71355;-79
2022/10/05 03:40:43;;;;;;;5.70;3.70;;;;;;;12.81;80.71;100998.95;107609;1280;60235;-78
2022/10/05 03:43:27;;;;;;;6.10;3.60;;;;;;;12.80;80.55;100994.48;107615;1281;62241;-78
2022/10/05 03:46:01;;;;;;;6.90;3.80;;;;;;;12.79;80.71;100994.94;107634;1279;61820;-79
2022/10/05 03:48:36;;;;;;;6.20;4.10;;;;;;;12.77;80.83;100981.82;107612;1280;74071;-78
2022/10/05 03:51:14;;;;;;;5.80;4.10;;;;;;;12.75;80.86;100981.55;107510;1281;72712;-79
2022/10/05 03:54:02;;;;;;;7.50;3.90;;;;;;;12.74;80.65;100981.02;107555;1280;72911;-79
2022/10/05 03:56:38;;;;;;;8.10;3.80;;;;;;;12.72;80.87;100978.38;107589;1278;61121;-77
2022/10/05 03:59:20;;;;;;;7.50;4.00;;;;;;;12.71;80.91;100976.94;107587;1279;62378;-78
2022/10/05 04:02:00;;;;;;;5.80;3.80;;;;;;;12.69;81.01;100976.94;107571;1279;75758;-78
2022/10/05 04:04:53;;;;;;;7.30;4.20;;;;;;;12.68;81.14;100973.04;107429;1279;71762;-78
2022/10/05 04:07:37;;;;;;;5.80;4.10;;;;;;;12.65;81.35;100971.55;107274;1279;74506;-77
2022/10/05 04:10:11;;;;;;;6.90;4.10;;;;;;;12.61;81.53;100973.80;107608;1279;61603;-77
2022/10/05 04:12:43;;;;;;;7.50;4.00;;;;;;;12.57;81.58;100970.70;107627;1279;60386;-78
2022/10/05 04:15:39;;;;;;;5.50;4.00;;;;;;;12.54;81.61;100960.73;107207;1279;75123;-78
2022/10/05 04:18:19;;;;;;;7.90;4.40;;;;;;;12.51;82.01;100956.01;107591;1279;72003;-77
2022/10/05 04:20:53;;;;;;;7.00;4.80;;;;;;;12.48;82.18;100946.41;107513;1281;74127;-78
2022/10/05 04:23:43;;;;;;;7.20;4.50;;;;;;;12.47;82.30;100936.85;107620;1279;60017;-78
2022/10/05 04:26:18;;;;;;;6.90;4.50;;;;;;;12.43;82.54;100936.84;107514;1281;62243;-78
2022/10/05 04:28:55;;;;;;;6.00;4.40;;;;;;;12.42;82.54;100930.77;107614;1279;76199;-78
2022/10/05 04:31:29;;;;;;;8.80;4.90;;;;;;;12.40;83.12;100929.19;107453;1281;71549;-78
2022/10/05 04:34:08;;;;;;;7.20;5.00;;;;;;;12.40;83.17;100927.88;107577;1280;73125;-79
2022/10/05 04:36:48;;;;;;;10.10;4.90;;;;;;;12.40;83.15;100933.85;107577;1281;62418;-78
2022/10/05 04:39:40;;;;;;;9.00;4.90;;;;;;;12.41;83.09;100933.94;107525;1281;61785;-78
2022/10/05 04:42:25;;;;;;;8.10;4.90;;;;;;;12.42;83.09;100931.50;107596;1281;74984;-78
2022/10/05 04:45:26;;;;;;;8.70;4.90;;;;;;;12.43;83.17;100934.05;107529;1280;71499;-78
2022/10/05 04:48:20;;;;;;;7.50;4.80;;;;;;;12.43;83.17;100930.13;107647;1281;73168;-81
2022/10/05 04:51:24;;;;;;;8.10;4.60;;;;;;;12.42;83.14;100921.88;107604;1280;62804;-81
2022/10/05 04:53:57;;;;;;;6.10;4.30;;;;;;;12.40;83.24;100925.34;108166;1280;60673;-81
2022/10/05 04:56:39;;;;;;;6.80;3.90;;;;;;;12.38;83.61;100922.40;107881;1281;74713;-81
2022/10/05 04:59:30;;;;;;;6.30;4.00;;;;;;;12.36;83.65;100918.04;107614;1281;72742;-81
2022/10/05 05:02:16;;;;;;;7.00;4.20;;;;;;;12.34;83.78;100918.95;107506;1281;74101;-81
2022/10/05 05:05:00;;;;;;;6.10;3.90;;;;;;;12.32;83.92;100923.63;107570;1281;63936;-81
2022/10/05 05:08:11;;;;;;;7.50;4.40;;;;;;;12.33;83.73;100927.15;107648;1280;60742;-81
2022/10/05 05:11:03;;;;;;;9.00;4.50;;;;;;;12.31;83.99;100930.88;106754;1288;75132;-81
2022/10/05 05:13:44;;;;;;;8.40;4.30;;;;;;;12.29;84.17;100935.39;107543;1280;72260;-81
2022/10/05 05:16:17;;;;;;;9.40;4.10;;;;;;;12.28;84.26;100930.95;107569;1281;73231;-81
2022/10/05 05:18:47;;;;;;;8.50;4.90;;;;;;;12.27;83.99;100928.36;107596;1281;61999;-82
2022/10/05 05:21:25;;;;;;;9.70;4.90;;;;;;;12.25;84.25;100924.28;107608;1281;61285;-81
2022/10/05 05:23:52;;;;;;;8.10;4.70;;;;;;;12.22;84.01;100927.59;107632;1279;74828;-81
2022/10/05 05:26:21;;;;;;;9.00;4.70;;;;;;;12.20;83.81;100942.41;107602;1281;71267;-76
2022/10/05 05:28:53;;;;;;;6.20;4.40;;;;;;;12.18;83.93;100943.93;107551;1280;73016;-75
2022/10/05 05:31:39;;;;;;;6.40;4.40;;;;;;;12.17;83.86;100943.47;107525;1280;62553;-75
2022/10/05 05:34:28;;;;;;;7.80;4.90;;;;;;;12.15;83.95;100952.21;107521;1280;61159;-75
2022/10/05 05:37:13;;;;;;;7.80;4.30;;;;;;;12.13;83.84;100951.73;107540;1280;74986;-75
2022/10/05 05:40:02;;;;;;;7.70;4.70;;;;;;;12.10;83.88;100952.64;107533;1281;73108;-75
2022/10/05 05:42:51;;;;;;;7.80;4.80;;;;;;;12.07;83.86;100959.02;107568;1280;73734;-76
2022/10/05 05:45:41;;;;;;;7.90;4.40;;;;;;;12.04;83.84;100957.54;107522;1280;60631;-74
2022/10/05 05:48:21;;;;;;;8.60;5.40;;;;;;;12.03;84.01;100961.73;107563;1280;60149;-74
2022/10/05 05:50:54;;;;;;;7.10;4.60;;;;;;;12.02;84.21;100961.70;107514;1281;75107;-74
2022/10/05 05:53:39;;;;;;;8.10;4.80;;;;;;;12.01;84.29;100956.88;107532;1281;72430;-75
2022/10/05 05:56:22;;;;;;;7.60;4.80;;;;;;;12.01;84.37;100955.81;107551;1280;72889;-74
2022/10/05 05:59:03;;;;;;;9.50;5.30;;;;;;;12.00;84.55;100960.14;107538;1281;62046;-75
2022/10/05 06:01:39;;;;;;;7.00;4.70;;;;;;;12.00;84.60;100953.11;107321;1281;60687;-75
2022/10/05 06:04:16;;;;;;;8.30;4.80;;;;;;;12.00;84.91;100949.15;107693;1281;76105;-75
2022/10/05 06:06:47;;;;;;;9.50;4.90;;;;;;;12.01;84.98;100948.88;107511;1281;71406;-75
2022/10/05 06:09:22;;;;;;;8.70;4.70;;;;;;;12.01;85.33;100952.36;107577;1280;73150;-75
2022/10/05 06:11:53;;;;;;;8.20;5.10;;;;;;;12.03;85.46;100953.75;107548;1281;63569;-75
2022/10/05 06:14:46;;;;;;;7.90;4.40;;;;;;;12.06;85.44;100951.17;107737;1281;61348;-75
2022/10/05 06:17:23;;;;;;;8.20;5.00;;;;;;;12.10;85.50;100941.15;107395;1280;75494;-75
2022/10/05 06:19:56;;;;;;;8.90;5.30;;;;;;;12.14;85.83;100946.82;107737;1280;72200;-75
2022/10/05 06:22:38;;;;;;;10.70;5.30;;;;;;;12.21;85.63;100946.36;107764;1281;73083;-75
2022/10/05 06:25:10;;;;;;;7.60;5.10;;;;;;;12.28;85.62;100943.52;107537;1281;62128;-75
2022/10/05 06:27:56;;;;;;;8.50;4.60;;;;;;;12.35;85.56;100942.95;107673;1279;60395;-75
2022/10/05 06:30:29;;;;;;;8.30;5.00;;;;;;;12.42;85.44;100947.96;107707;1281;74905;-75
2022/10/05 06:33:30;;;;;;;6.70;4.90;;;;;;;12.48;85.38;100949.98;107741;1281;71733;-75
2022/10/05 06:36:05;;;;;;;7.30;4.80;;;;;;;12.54;85.18;100949.09;107749;1281;71717;-75
2022/10/05 06:38:46;;;;;;;6.60;4.50;;;;;;;12.60;84.92;100955.34;107794;1280;63861;-74
2022/10/05 06:41:50;;;;;;;9.00;5.70;;;;;;;12.64;84.82;100956.24;107829;1281;60415;-74
2022/10/05 06:44:27;;;;;;;7.80;4.70;;;;;;;12.69;84.51;100965.77;107805;1281;74938;-75
2022/10/05 06:47:12;;;;;;;9.50;5.20;;;;;;;12.72;84.38;100960.80;107743;1280;72539;-75
2022/10/05 06:50:07;;;;;;;8.60;4.90;;;;;;;12.77;84.26;100958.64;107739;1281;72828;-74
2022/10/05 06:52:59;;;;;;;8.00;4.80;;;;;;;12.82;84.14;100963.46;107733;1279;62270;-75
2022/10/05 06:55:44;;;;;;;8.90;4.80;;;;;;;12.89;83.93;100961.43;107749;1281;60891;-75
2022/10/05 06:58:29;;;;;;;9.70;4.90;;;;;;;12.96;83.58;100959.76;107565;1281;74717;-75
2022/10/05 07:01:18;;;;;;;7.80;4.50;;;;;;;13.04;83.45;100956.06;107729;1280;72528;-75
2022/10/05 07:04:23;;;;;;;9.30;4.80;;;;;;;13.14;83.29;100955.98;107737;1281;74221;-75
2022/10/05 07:07:08;;;;;;;12.40;4.70;;;;;;;13.25;83.04;100955.52;107695;1280;62167;-75
2022/10/05 07:09:49;;;;;;;7.30;4.50;;;;;;;13.36;82.61;100954.36;107719;1281;60605;-75
2022/10/05 07:12:43;;;;;;;6.60;4.20;;;;;;;13.49;82.25;100952.86;107583;1280;75939;-75
2022/10/05 07:15:28;;;;;;;6.80;4.40;;;;;;;13.65;81.86;100954.52;107690;1281;71195;-75
2022/10/05 07:18:03;;;;;;;5.70;4.30;;;;;;;13.75;81.04;100952.09;107464;1281;72696;-75
2022/10/05 07:21:01;;;;;;;8.40;4.20;;;;;;;13.83;80.68;100948.89;107726;1280;62748;-75
2022/10/05 07:24:12;;;;;;;7.90;4.00;;;;;;;13.93;80.42;100952.96;107701;1281;59806;-75
2022/10/05 07:26:45;;;;;;;7.60;4.10;;;;;;;14.01;79.81;100953.86;106833;1288;74799;-75
2022/10/05 07:29:19;;;;;;;6.80;4.30;;;;;;;14.14;79.68;100955.98;107564;1281;71292;-75
2022/10/05 07:32:14;;;;;;;7.10;4.50;;;;;;;14.24;79.05;100960.91;107579;1281;73215;-75
2022/10/05 07:38:19;;;;;;;8.20;4.60;;;;;;;14.32;78.43;100956.10;107682;1281;59969;-75
2022/10/05 07:41:07;;;;;;;8.20;4.50;;;;;;;14.33;78.44;100949.77;107563;1281;73747;-75
2022/10/05 07:43:40;;;;;;;7.00;4.50;;;;;;;14.29;78.17;100956.60;107756;1281;71555;-75
2022/10/05 07:46:45;;;;;;;9.10;4.30;;;;;;;14.28;78.43;100950.69;107743;1280;74623;-75
2022/10/05 07:49:40;;;;;;;6.10;4.60;;;;;;;14.27;78.34;100954.09;107749;1281;62246;-75
2022/10/05 07:52:21;;;;;;;8.30;4.60;;;;;;;14.30;78.60;100952.62;107768;1281;61846;-75
2022/10/05 07:55:11;;;;;;;9.00;4.50;;;;;;;14.31;78.62;100946.47;107755;1281;76206;-75
2022/10/05 07:58:00;;;;;;;7.50;4.70;;;;;;;14.31;78.69;100945.44;107539;1281;71799;-75
2022/10/05 08:00:41;;;;;;;7.00;4.40;;;;;;;14.33;78.67;100951.70;107704;1280;73744;-75
2022/10/05 08:03:28;;;;;;;7.00;4.80;;;;;;;14.36;78.72;100946.15;107754;1280;62607;-75
2022/10/05 08:06:00;;;;;;;5.90;4.60;;;;;;;14.35;78.70;100945.52;107527;1281;60562;-75
2022/10/05 08:08:35;;;;;;;6.90;4.50;;;;;;;14.28;78.87;100957.02;107734;1280;75557;-75
2022/10/05 08:11:49;;;;;;;7.20;4.40;;;;;;;14.23;79.20;100955.65;107774;1281;71177;-75
2022/10/05 08:14:26;;;;;;;7.60;4.20;;;;;;;14.18;79.37;100957.49;107697;1281;74808;-75
2022/10/05 08:16:56;;;;;;;7.40;4.50;;;;;;;14.18;79.68;100952.98;107754;1280;62294;-75
2022/10/05 08:19:32;;;;;;;7.50;4.70;;;;;;;14.23;79.76;100952.49;107586;1281;60527;-75
2022/10/05 08:22:05;;;;;;;6.70;4.80;;;;;;;14.39;79.54;100951.06;107761;1281;74908;-75
2022/10/05 08:25:02;;;;;;;7.70;4.50;;;;;;;14.59;79.13;100952.78;107568;1281;72364;-75
2022/10/05 08:27:50;;;;;;;6.90;4.80;;;;;;;14.87;78.16;100957.08;107714;1281;74369;-74
2022/10/05 08:30:18;;;;;;;6.00;4.40;;;;;;;15.10;76.92;100960.27;107548;1281;63180;-75
2022/10/05 08:33:04;;;;;;;7.80;4.70;;;;;;;15.28;76.44;100956.41;107735;1280;61777;-74
2022/10/05 08:35:42;;;;;;;6.80;4.40;;;;;;;15.49;75.48;100963.02;107740;1281;74574;-74
2022/10/05 08:38:15;;;;;;;8.20;4.80;;;;;;;15.68;75.10;100963.91;107701;1281;73521;-74
2022/10/05 08:41:06;;;;;;;6.30;4.70;;;;;;;15.82;74.33;100962.40;107756;1279;74049;-74
2022/10/05 08:46:16;;;;;;;6.10;4.10;;;;;;;16.06;73.12;100963.80;107982;1276;59567;-73
2022/10/05 08:49:21;;;;;;;7.00;4.70;;;;;;;16.17;72.69;100964.05;108061;1276;73707;-72
2022/10/05 08:52:12;;;;;;;7.80;4.40;;;;;;;16.23;72.40;100959.95;108010;1276;71323;-73
2022/10/05 08:54:45;;;;;;;6.70;4.70;;;;;;;16.23;71.92;100960.23;108001;1276;74282;-73
2022/10/05 08:57:14;;;;;;;7.40;4.30;;;;;;;16.26;72.00;100963.85;108002;1277;63499;-73
2022/10/05 09:00:07;;;;;;;7.80;4.40;;;;;;;16.33;72.14;100967.14;108089;1277;60526;-73
2022/10/05 09:03:10;;;;;;;5.80;4.30;;;;;;;16.40;71.95;100968.73;107835;1277;76292;-73
2022/10/05 09:05:56;;;;;;;6.20;3.90;;;;;;;16.50;71.77;100969.92;107888;1277;72588;-73
2022/10/05 09:08:50;;;;;;;6.30;4.30;;;;;;;16.59;71.48;100970.88;108042;1277;74129;-73
2022/10/05 09:11:40;;;;;;;7.30;4.10;;;;;;;16.66;71.32;100965.46;108021;1277;62369;-73
2022/10/05 09:14:16;;;;;;;6.00;4.00;;;;;;;16.71;70.60;100971.52;107864;1278;61651;-73
2022/10/05 09:16:45;;;;;;;6.10;4.40;;;;;;;16.70;70.71;100964.42;108006;1277;74950;-73
2022/10/05 09:19:39;;;;;;;7.10;4.30;;;;;;;16.76;70.88;100962.57;108029;1277;71351;-73
2022/10/05 09:22:31;;;;;;;7.40;4.00;;;;;;;16.91;71.17;100962.28;107930;1277;73709;-73
2022/10/05 09:25:26;;;;;;;7.10;4.00;;;;;;;17.07;71.09;100962.92;107990;1277;61806;-74
2022/10/05 09:28:22;;;;;;;6.60;4.30;;;;;;;17.15;70.01;100964.96;108022;1277;60865;-73
2022/10/05 09:31:21;;;;;;;7.70;4.40;;;;;;;17.09;69.39;100963.54;108002;1276;74989;-73
2022/10/05 09:33:55;;;;;;;7.20;4.30;;;;;;;17.12;69.86;100968.47;107681;1281;71402;-73
2022/10/05 09:36:45;;;;;;;5.20;3.40;;;;;;;17.13;69.45;100971.93;108003;1277;72903;-73
2022/10/05 09:39:23;;;;;;;5.80;3.50;;;;;;;17.06;67.81;100972.58;108006;1277;63016;-74
2022/10/05 09:42:27;;;;;;;5.10;3.20;;;;;;;17.00;67.21;100972.81;107987;1277;61754;-73
2022/10/05 09:45:22;;;;;;;5.40;3.30;;;;;;;16.93;66.75;100970.60;107997;1277;74841;-73
2022/10/05 09:48:29;;;;;;;6.00;3.70;;;;;;;16.94;67.33;100969.45;108004;1277;72897;-74
2022/10/05 09:51:30;;;;;;;7.90;3.50;;;;;;;16.88;67.19;100970.40;107587;1279;72992;-73
2022/10/05 09:54:05;;;;;;;5.30;3.10;;;;;;;16.85;67.44;100965.30;108028;1277;63297;-73
2022/10/05 09:57:07;;;;;;;6.60;3.70;;;;;;;16.91;67.57;100969.27;107914;1277;60513;-73
2022/10/05 09:59:55;;;;;;;7.70;3.90;;;;;;;16.87;67.35;100969.45;107743;1277;75831;-74
2022/10/05 10:02:37;;;;;;;8.10;3.70;;;;;;;16.91;67.45;100964.33;107595;1279;71289;-73
2022/10/05 10:05:15;;;;;;;7.70;3.80;;;;;;;16.90;67.43;100964.16;107901;1277;73762;-73
2022/10/05 10:07:49;;;;;;;6.00;4.60;;;;;;;16.92;67.55;100966.27;107939;1277;61165;-73
2022/10/05 10:10:35;;;;;;;4.80;3.40;;;;;;;16.86;67.42;100959.98;108017;1277;60598;-73
2022/10/05 10:13:03;;;;;;;5.50;3.30;;;;;;;16.85;67.89;100955.40;108021;1277;75070;-73
2022/10/05 10:16:02;;;;;;;6.20;3.80;;;;;;;16.83;67.67;100958.41;107999;1277;71371;-74
2022/10/05 10:18:50;;;;;;;5.90;3.50;;;;;;;16.86;67.63;100959.19;107726;1277;73029;-73
2022/10/05 10:21:55;;;;;;;5.70;3.50;;;;;;;16.88;67.74;100955.52;107847;1278;63311;-74
2022/10/05 10:24:47;;;;;;;5.20;3.60;;;;;;;16.87;67.48;100954.13;107772;1277;60382;-74
2022/10/05 10:27:22;;;;;;;5.50;3.80;;;;;;;16.89;67.79;100955.11;107862;1277;75046;-73
2022/10/05 10:29:58;;;;;;;7.90;3.60;;;;;;;16.84;67.63;100958.45;107663;1280;72136;-74
2022/10/05 10:32:55;;;;;;;6.80;3.50;;;;;;;16.85;67.81;100950.83;107951;1277;73683;-73
2022/10/05 10:35:58;;;;;;;5.90;3.60;;;;;;;16.89;68.05;100957.38;107824;1278;62130;-73
2022/10/05 10:38:32;;;;;;;6.60;3.90;;;;;;;16.89;67.85;100956.52;107744;1277;59707;-73
2022/10/05 10:41:01;;;;;;;8.60;3.80;;;;;;;16.86;67.98;100949.42;107715;1281;74711;-73
2022/10/05 10:44:05;;;;;;;6.90;4.00;;;;;;;16.83;68.08;100952.64;107959;1277;72435;-73
2022/10/05 10:46:34;;;;;;;6.60;4.00;;;;;;;16.83;68.20;100949.06;107892;1277;73579;-73
2022/10/05 10:49:14;;;;;;;4.80;3.10;;;;;;;16.85;67.97;100943.98;107960;1277;61776;-73
2022/10/05 10:52:18;;;;;;;7.30;3.30;;;;;;;16.88;67.86;100942.48;107802;1277;59311;-73
2022/10/05 10:55:14;;;;;;;6.50;3.20;;;;;;;16.98;67.94;100937.77;107825;1279;74819;-73
2022/10/05 10:58:23;;;;;;;5.70;3.10;;;;;;;17.06;67.39;100938.43;107972;1277;71330;-73
2022/10/05 11:01:31;;;;;;;5.60;3.20;;;;;;;17.11;67.16;100941.05;107879;1277;73647;-73
2022/10/05 11:04:35;;;;;;;7.00;3.70;;;;;;;17.12;67.02;100941.01;107818;1277;62253;-73
2022/10/05 11:07:22;;;;;;;6.20;3.10;;;;;;;17.07;66.94;100940.23;107820;1278;62552;-73
2022/10/05 11:10:27;;;;;;;5.10;3.40;;;;;;;17.04;66.91;100939.02;107794;1278;73927;-72
2022/10/05 11:13:12;;;;;;;5.30;3.20;;;;;;;17.10;66.91;100933.77;107606;1278;72793;-72
2022/10/05 11:16:12;;;;;;;3.60;2.60;;;;;;;17.21;66.83;100927.77;107880;1277;74057;-72
2022/10/05 11:18:44;;;;;;;5.50;2.90;;;;;;;17.45;66.51;100919.90;107884;1277;61932;-72
2022/10/05 11:21:35;;;;;;;7.10;2.90;;;;;;;17.62;66.07;100915.84;107761;1279;59747;-73
2022/10/05 11:24:40;;;;;;;4.00;2.60;;;;;;;17.75;64.99;100914.85;107954;1277;74898;-73
2022/10/05 11:27:23;;;;;;;3.20;2.30;;;;;;;17.73;64.37;100911.82;108016;1277;71054;-73
2022/10/05 11:30:11;;;;;;;4.70;2.80;;;;;;;17.66;64.46;100905.70;107887;1278;73992;-72
2022/10/05 11:32:56;;;;;;;3.60;2.50;;;;;;;17.77;64.70;100894.77;107937;1277;62975;-72
2022/10/05 11:35:45;;;;;;;5.30;3.10;;;;;;;17.91;63.66;100891.69;107937;1277;60065;-72
2022/10/05 11:38:20;;;;;;;4.00;2.70;;;;;;;18.15;63.31;100883.96;107710;1281;75910;-72
2022/10/05 11:41:18;;;;;;;3.60;2.80;;;;;;;18.28;62.73;100881.36;107905;1277;71612;-73
2022/10/05 11:44:00;;;;;;;5.60;3.00;;;;;;;18.26;61.75;100881.88;107938;1277;73201;-72
2022/10/05 11:46:42;;;;;;;4.70;3.00;;;;;;;18.22;62.20;100877.46;108066;1277;63320;-72
2022/10/05 11:49:33;;;;;;;4.80;3.00;;;;;;;18.13;62.92;100870.31;107809;1277;60622;-72
2022/10/05 11:52:15;;;;;;;4.00;2.60;;;;;;;18.08;63.34;100863.38;107886;1277;75760;-72
2022/10/05 11:55:19;;;;;;;6.70;2.90;;;;;;;18.02;63.08;100857.44;107711;1280;72579;-72
2022/10/05 11:57:59;;;;;;;5.50;2.40;;;;;;;18.32;62.29;100847.94;107897;1277;73063;-72
2022/10/05 12:01:03;;;;;;;4.00;2.40;;;;;;;18.89;60.48;100848.42;107956;1277;62198;-72
2022/10/05 12:03:59;;;;;;;3.80;2.50;;;;;;;19.71;57.89;100839.02;107920;1277;59534;-72
2022/10/05 12:06:34;;;;;;;4.20;2.40;;;;;;;20.58;55.40;100831.36;107665;1281;76217;-72
2022/10/05 12:09:13;;;;;;;2.90;2.20;;;;;;;21.38;52.98;100835.98;107981;1277;71961;-72
2022/10/05 12:12:07;;;;;;;3.50;2.20;;;;;;;22.02;50.56;100833.34;107756;1278;71689;-72
2022/10/05 12:14:46;;;;;;;3.30;2.40;;;;;;;22.83;48.50;100826.80;107786;1277;60267;-72
2022/10/05 12:17:34;;;;;;;3.70;2.50;;;;;;;23.13;47.08;100820.64;107975;1277;59392;-72
2022/10/05 12:20:19;;;;;;;4.90;3.00;;;;;;;23.40;45.85;100816.36;108049;1277;74791;-72
2022/10/05 12:22:55;;;;;;;5.10;4.20;;;;;;;23.94;44.88;100810.66;107754;1277;72122;-72
2022/10/05 12:25:38;;;;;;;4.40;2.60;;;;;;;23.89;44.72;100816.04;107837;1277;72980;-73
2022/10/05 12:28:11;;;;;;;6.50;5.10;;;;;;;23.66;45.26;100808.73;107935;1277;61923;-73
2022/10/05 12:30:59;;;;;;;4.00;3.50;;;;;;;23.62;45.52;100801.21;107786;1278;61654;-72
2022/10/05 12:33:40;;;;;;;4.20;3.20;;;;;;;23.47;45.76;100805.96;107934;1277;76567;-72
2022/10/05 12:36:18;;;;;;;4.60;3.50;;;;;;;22.88;46.93;100802.91;107995;1277;72522;-72
2022/10/05 12:39:04;;;;;;;5.00;3.60;;;;;;;22.99;46.41;100805.50;107827;1278;73789;-72
2022/10/05 12:41:50;;;;;;;7.10;4.40;;;;;;;23.60;45.40;100802.17;107954;1277;61589;-72